sensor_id;sensor_type;location;lat;lon;timestamp;temperature;humidity
52024;DHT22;38038;45.922;13.604;2024-02-16T00:00:17;5.90;99.90
52024;DHT22;38038;45.922;13.604;2024-02-16T00:02:44;6.00;99.90
52024;DHT22;38038;45.922;13.604;2024-02-16T00:05:11;6.10;99.90
52024;DHT22;38038;45.922;13.604;2024-02-16T00:07:40;6.00;99.90
52024;DHT22;38038;45.922;13.604;2024-02-16T00:10:07;6.10;99.90
52024;DHT22;38038;45.922;13.604;2024-02-16T00:12:33;6.10;99.90
52024;DHT22;38038;45.922;13.604;2024-02-16T00:15:00;6.00;99.90
52024;DHT22;38038;45.922;13.604;2024-02-16T00:17:26;5.90;99.90
52024;DHT22;38038;45.922;13.604;2024-02-16T00:19:55;5.90;99.90
52024;DHT22;38038;45.922;13.604;2024-02-16T00:22:21;5.90;99.90
52024;DHT22;38038;45.922;13.604;2024-02-16T00:24:47;5.90;99.90
52024;DHT22;38038;45.922;13.604;2024-02-16T00:27:14;5.80;99.90
52024;DHT22;38038;45.922;13.604;2024-02-16T00:29:40;5.80;99.90
52024;DHT22;38038;45.922;13.604;2024-02-16T00:32:06;5.90;99.90
52024;DHT22;38038;45.922;13.604;2024-02-16T00:34:36;5.70;99.90
52024;DHT22;38038;45.922;13.604;2024-02-16T00:37:02;5.70;99.90
52024;DHT22;38038;45.922;13.604;2024-02-16T00:39:30;5.60;99.90
52024;DHT22;38038;45.922;13.604;2024-02-16T00:41:56;5.60;99.90
52024;DHT22;38038;45.922;13.604;2024-02-16T00:44:22;5.70;99.90
52024;DHT22;38038;45.922;13.604;2024-02-16T00:46:47;5.60;99.90
52024;DHT22;38038;45.922;13.604;2024-02-16T00:49:13;5.60;99.90
52024;DHT22;38038;45.922;13.604;2024-02-16T00:51:40;5.60;99.90
52024;DHT22;38038;45.922;13.604;2024-02-16T00:54:06;5.70;99.90
52024;DHT22;38038;45.922;13.604;2024-02-16T00:56:32;5.60;99.90
52024;DHT22;38038;45.922;13.604;2024-02-16T00:58:58;5.50;99.90
52024;DHT22;38038;45.922;13.604;2024-02-16T01:01:24;5.50;99.90
52024;DHT22;38038;45.922;13.604;2024-02-16T01:03:52;5.40;99.90
52024;DHT22;38038;45.922;13.604;2024-02-16T01:06:18;5.40;99.90
52024;DHT22;38038;45.922;13.604;2024-02-16T01:08:44;5.40;99.90
52024;DHT22;38038;45.922;13.604;2024-02-16T01:11:10;5.30;99.90
52024;DHT22;38038;45.922;13.604;2024-02-16T01:13:35;5.30;99.90
52024;DHT22;38038;45.922;13.604;2024-02-16T01:16:02;5.30;99.90
52024;DHT22;38038;45.922;13.604;2024-02-16T01:18:29;5.20;99.90
52024;DHT22;38038;45.922;13.604;2024-02-16T01:20:55;5.20;99.90
52024;DHT22;38038;45.922;13.604;2024-02-16T01:23:21;5.20;99.90
52024;DHT22;38038;45.922;13.604;2024-02-16T01:25:47;5.30;99.90
52024;DHT22;38038;45.922;13.604;2024-02-16T01:28:13;5.20;99.90
52024;DHT22;38038;45.922;13.604;2024-02-16T01:30:39;5.10;99.90
52024;DHT22;38038;45.922;13.604;2024-02-16T01:33:05;5.00;99.90
52024;DHT22;38038;45.922;13.604;2024-02-16T01:35:33;4.90;99.90
52024;DHT22;38038;45.922;13.604;2024-02-16T01:37:58;4.90;99.90
52024;DHT22;38038;45.922;13.604;2024-02-16T01:40:24;4.90;99.90
52024;DHT22;38038;45.922;13.604;2024-02-16T01:42:52;4.90;99.90
52024;DHT22;38038;45.922;13.604;2024-02-16T01:45:20;4.90;99.90
52024;DHT22;38038;45.922;13.604;2024-02-16T01:47:48;4.90;99.90
52024;DHT22;38038;45.922;13.604;2024-02-16T01:50:15;4.80;99.90
52024;DHT22;38038;45.922;13.604;2024-02-16T01:52:43;4.80;99.90
52024;DHT22;38038;45.922;13.604;2024-02-16T01:55:09;4.80;99.90
52024;DHT22;38038;45.922;13.604;2024-02-16T01:57:46;4.80;99.90
52024;DHT22;38038;45.922;13.604;2024-02-16T02:00:12;4.70;99.90
52024;DHT22;38038;45.922;13.604;2024-02-16T02:02:40;4.80;99.90
52024;DHT22;38038;45.922;13.604;2024-02-16T02:05:06;4.80;99.90
52024;DHT22;38038;45.922;13.604;2024-02-16T02:07:33;4.80;99.90
52024;DHT22;38038;45.922;13.604;2024-02-16T02:09:58;4.80;99.90
52024;DHT22;38038;45.922;13.604;2024-02-16T02:12:24;4.90;99.90
52024;DHT22;38038;45.922;13.604;2024-02-16T02:14:50;4.90;99.90
52024;DHT22;38038;45.922;13.604;2024-02-16T02:17:19;4.90;99.90
52024;DHT22;38038;45.922;13.604;2024-02-16T02:19:48;4.90;99.90
52024;DHT22;38038;45.922;13.604;2024-02-16T02:22:19;4.90;99.90
52024;DHT22;38038;45.922;13.604;2024-02-16T02:24:45;4.90;99.90
52024;DHT22;38038;45.922;13.604;2024-02-16T02:27:14;4.90;99.90
52024;DHT22;38038;45.922;13.604;2024-02-16T02:29:41;5.00;99.90
52024;DHT22;38038;45.922;13.604;2024-02-16T02:32:07;4.90;99.90
52024;DHT22;38038;45.922;13.604;2024-02-16T02:34:33;4.90;99.90
52024;DHT22;38038;45.922;13.604;2024-02-16T02:36:59;4.90;99.90
52024;DHT22;38038;45.922;13.604;2024-02-16T02:39:25;4.90;99.90
52024;DHT22;38038;45.922;13.604;2024-02-16T02:41:51;4.70;99.90
52024;DHT22;38038;45.922;13.604;2024-02-16T02:44:18;4.60;99.90
52024;DHT22;38038;45.922;13.604;2024-02-16T02:46:44;4.50;99.90
52024;DHT22;38038;45.922;13.604;2024-02-16T02:49:10;4.50;99.90
52024;DHT22;38038;45.922;13.604;2024-02-16T02:51:36;4.30;99.90
52024;DHT22;38038;45.922;13.604;2024-02-16T02:54:02;4.20;99.90
52024;DHT22;38038;45.922;13.604;2024-02-16T02:56:27;4.10;99.90
52024;DHT22;38038;45.922;13.604;2024-02-16T02:58:53;4.10;99.90
52024;DHT22;38038;45.922;13.604;2024-02-16T03:01:19;4.10;99.90
52024;DHT22;38038;45.922;13.604;2024-02-16T03:03:48;3.90;99.90
52024;DHT22;38038;45.922;13.604;2024-02-16T03:06:18;3.90;99.90
52024;DHT22;38038;45.922;13.604;2024-02-16T03:08:43;3.90;99.90
52024;DHT22;38038;45.922;13.604;2024-02-16T03:11:09;4.00;99.90
52024;DHT22;38038;45.922;13.604;2024-02-16T03:13:36;4.10;99.90
52024;DHT22;38038;45.922;13.604;2024-02-16T03:16:02;4.10;99.90
52024;DHT22;38038;45.922;13.604;2024-02-16T03:18:33;4.20;99.90
52024;DHT22;38038;45.922;13.604;2024-02-16T03:21:00;4.20;99.90
52024;DHT22;38038;45.922;13.604;2024-02-16T03:23:25;4.10;99.90
52024;DHT22;38038;45.922;13.604;2024-02-16T03:25:51;4.10;99.90
52024;DHT22;38038;45.922;13.604;2024-02-16T03:28:17;4.10;99.90
52024;DHT22;38038;45.922;13.604;2024-02-16T03:30:44;4.20;99.90
52024;DHT22;38038;45.922;13.604;2024-02-16T03:33:10;4.10;99.90
52024;DHT22;38038;45.922;13.604;2024-02-16T03:35:36;4.20;99.90
52024;DHT22;38038;45.922;13.604;2024-02-16T03:38:05;4.10;99.90
52024;DHT22;38038;45.922;13.604;2024-02-16T03:40:31;4.00;99.90
52024;DHT22;38038;45.922;13.604;2024-02-16T03:42:57;4.00;99.90
52024;DHT22;38038;45.922;13.604;2024-02-16T03:45:23;4.10;99.90
52024;DHT22;38038;45.922;13.604;2024-02-16T03:47:50;4.00;99.90
52024;DHT22;38038;45.922;13.604;2024-02-16T03:50:18;3.90;99.90
52024;DHT22;38038;45.922;13.604;2024-02-16T03:52:44;3.90;99.90
52024;DHT22;38038;45.922;13.604;2024-02-16T03:55:10;4.00;99.90
52024;DHT22;38038;45.922;13.604;2024-02-16T03:57:36;3.90;99.90
52024;DHT22;38038;45.922;13.604;2024-02-16T04:00:03;3.90;99.90
52024;DHT22;38038;45.922;13.604;2024-02-16T04:02:31;4.00;99.90
52024;DHT22;38038;45.922;13.604;2024-02-16T04:04:57;3.90;99.90
52024;DHT22;38038;45.922;13.604;2024-02-16T04:07:23;3.80;99.90
52024;DHT22;38038;45.922;13.604;2024-02-16T04:09:49;3.90;99.90
52024;DHT22;38038;45.922;13.604;2024-02-16T04:12:15;4.00;99.90
52024;DHT22;38038;45.922;13.604;2024-02-16T04:14:41;4.00;99.90
52024;DHT22;38038;45.922;13.604;2024-02-16T04:17:07;4.10;99.90
52024;DHT22;38038;45.922;13.604;2024-02-16T04:19:33;4.00;99.90
52024;DHT22;38038;45.922;13.604;2024-02-16T04:21:59;4.00;99.90
52024;DHT22;38038;45.922;13.604;2024-02-16T04:24:24;4.00;99.90
52024;DHT22;38038;45.922;13.604;2024-02-16T04:26:50;4.00;99.90
52024;DHT22;38038;45.922;13.604;2024-02-16T04:29:16;3.90;99.90
52024;DHT22;38038;45.922;13.604;2024-02-16T04:31:42;3.80;99.90
52024;DHT22;38038;45.922;13.604;2024-02-16T04:34:11;3.70;99.90
52024;DHT22;38038;45.922;13.604;2024-02-16T04:36:37;3.70;99.90
52024;DHT22;38038;45.922;13.604;2024-02-16T04:39:03;3.70;99.90
52024;DHT22;38038;45.922;13.604;2024-02-16T04:41:29;3.60;99.90
52024;DHT22;38038;45.922;13.604;2024-02-16T04:43:55;3.60;99.90
52024;DHT22;38038;45.922;13.604;2024-02-16T04:46:21;3.60;99.90
52024;DHT22;38038;45.922;13.604;2024-02-16T04:48:47;3.50;99.90
52024;DHT22;38038;45.922;13.604;2024-02-16T04:51:13;3.50;99.90
52024;DHT22;38038;45.922;13.604;2024-02-16T04:53:39;3.60;99.90
52024;DHT22;38038;45.922;13.604;2024-02-16T04:56:05;3.50;99.90
52024;DHT22;38038;45.922;13.604;2024-02-16T04:58:31;3.50;99.90
52024;DHT22;38038;45.922;13.604;2024-02-16T05:00:57;3.50;99.90
52024;DHT22;38038;45.922;13.604;2024-02-16T05:03:23;3.60;99.90
52024;DHT22;38038;45.922;13.604;2024-02-16T05:05:49;3.70;99.90
52024;DHT22;38038;45.922;13.604;2024-02-16T05:08:15;3.90;99.90
52024;DHT22;38038;45.922;13.604;2024-02-16T05:10:41;4.00;99.90
52024;DHT22;38038;45.922;13.604;2024-02-16T05:13:07;4.00;99.90
52024;DHT22;38038;45.922;13.604;2024-02-16T05:15:32;4.00;99.90
52024;DHT22;38038;45.922;13.604;2024-02-16T05:17:58;4.00;99.90
52024;DHT22;38038;45.922;13.604;2024-02-16T05:20:24;4.10;99.90
52024;DHT22;38038;45.922;13.604;2024-02-16T05:22:50;4.10;99.90
52024;DHT22;38038;45.922;13.604;2024-02-16T05:25:17;4.10;99.90
52024;DHT22;38038;45.922;13.604;2024-02-16T05:27:46;4.10;99.90
52024;DHT22;38038;45.922;13.604;2024-02-16T05:30:15;3.90;99.90
52024;DHT22;38038;45.922;13.604;2024-02-16T05:32:44;3.90;99.90
52024;DHT22;38038;45.922;13.604;2024-02-16T05:35:10;3.80;99.90
52024;DHT22;38038;45.922;13.604;2024-02-16T05:37:46;3.70;99.90
52024;DHT22;38038;45.922;13.604;2024-02-16T05:40:17;3.70;99.90
52024;DHT22;38038;45.922;13.604;2024-02-16T05:42:57;3.70;99.90
52024;DHT22;38038;45.922;13.604;2024-02-16T05:45:25;3.80;99.90
52024;DHT22;38038;45.922;13.604;2024-02-16T05:47:54;3.70;99.90
52024;DHT22;38038;45.922;13.604;2024-02-16T05:50:21;3.80;99.90
52024;DHT22;38038;45.922;13.604;2024-02-16T05:52:47;3.60;99.90
52024;DHT22;38038;45.922;13.604;2024-02-16T05:55:14;3.60;99.90
52024;DHT22;38038;45.922;13.604;2024-02-16T05:57:39;3.60;99.90
52024;DHT22;38038;45.922;13.604;2024-02-16T06:00:07;3.50;99.90
52024;DHT22;38038;45.922;13.604;2024-02-16T06:02:34;3.40;99.90
52024;DHT22;38038;45.922;13.604;2024-02-16T06:05:03;3.20;99.90
52024;DHT22;38038;45.922;13.604;2024-02-16T06:07:30;3.20;99.90
52024;DHT22;38038;45.922;13.604;2024-02-16T06:09:56;3.10;99.90
52024;DHT22;38038;45.922;13.604;2024-02-16T06:12:23;3.10;99.90
52024;DHT22;38038;45.922;13.604;2024-02-16T06:14:49;3.00;99.90
52024;DHT22;38038;45.922;13.604;2024-02-16T06:17:15;2.90;99.90
52024;DHT22;38038;45.922;13.604;2024-02-16T06:19:42;2.80;99.90
52024;DHT22;38038;45.922;13.604;2024-02-16T06:22:08;2.80;99.90
52024;DHT22;38038;45.922;13.604;2024-02-16T06:24:34;2.90;99.90
52024;DHT22;38038;45.922;13.604;2024-02-16T06:27:00;2.90;99.90
52024;DHT22;38038;45.922;13.604;2024-02-16T06:29:26;2.90;99.90
52024;DHT22;38038;45.922;13.604;2024-02-16T06:31:52;3.00;99.90
52024;DHT22;38038;45.922;13.604;2024-02-16T06:34:18;3.00;99.90
52024;DHT22;38038;45.922;13.604;2024-02-16T06:36:44;3.00;99.90
52024;DHT22;38038;45.922;13.604;2024-02-16T06:39:11;3.10;99.90
52024;DHT22;38038;45.922;13.604;2024-02-16T06:41:37;3.10;99.90
52024;DHT22;38038;45.922;13.604;2024-02-16T06:44:06;3.30;99.90
52024;DHT22;38038;45.922;13.604;2024-02-16T06:46:32;3.30;99.90
52024;DHT22;38038;45.922;13.604;2024-02-16T06:48:57;3.30;99.90
52024;DHT22;38038;45.922;13.604;2024-02-16T06:51:24;3.40;99.90
52024;DHT22;38038;45.922;13.604;2024-02-16T06:53:50;3.40;99.90
52024;DHT22;38038;45.922;13.604;2024-02-16T06:56:16;3.30;99.90
52024;DHT22;38038;45.922;13.604;2024-02-16T06:58:44;3.40;99.90
52024;DHT22;38038;45.922;13.604;2024-02-16T07:01:10;3.30;99.90
52024;DHT22;38038;45.922;13.604;2024-02-16T07:03:35;3.30;99.90
52024;DHT22;38038;45.922;13.604;2024-02-16T07:06:04;3.30;99.90
52024;DHT22;38038;45.922;13.604;2024-02-16T07:08:33;3.30;99.90
52024;DHT22;38038;45.922;13.604;2024-02-16T07:10:59;3.40;99.90
52024;DHT22;38038;45.922;13.604;2024-02-16T07:13:24;3.60;99.90
52024;DHT22;38038;45.922;13.604;2024-02-16T07:15:50;3.70;99.90
52024;DHT22;38038;45.922;13.604;2024-02-16T07:18:16;3.70;99.90
52024;DHT22;38038;45.922;13.604;2024-02-16T07:20:42;3.80;99.90
52024;DHT22;38038;45.922;13.604;2024-02-16T07:23:08;3.90;99.90
52024;DHT22;38038;45.922;13.604;2024-02-16T07:25:35;3.90;99.90
52024;DHT22;38038;45.922;13.604;2024-02-16T07:28:00;3.90;99.90
52024;DHT22;38038;45.922;13.604;2024-02-16T07:30:26;4.00;99.90
52024;DHT22;38038;45.922;13.604;2024-02-16T07:32:52;4.10;99.90
52024;DHT22;38038;45.922;13.604;2024-02-16T07:35:18;4.20;99.90
52024;DHT22;38038;45.922;13.604;2024-02-16T07:37:44;4.30;99.90
52024;DHT22;38038;45.922;13.604;2024-02-16T07:40:10;4.40;99.90
52024;DHT22;38038;45.922;13.604;2024-02-16T07:42:39;4.50;99.90
52024;DHT22;38038;45.922;13.604;2024-02-16T07:45:08;4.70;99.90
52024;DHT22;38038;45.922;13.604;2024-02-16T07:47:35;4.80;99.90
52024;DHT22;38038;45.922;13.604;2024-02-16T07:50:01;5.00;99.90
52024;DHT22;38038;45.922;13.604;2024-02-16T07:52:26;5.10;99.90
52024;DHT22;38038;45.922;13.604;2024-02-16T07:54:52;5.20;99.90
52024;DHT22;38038;45.922;13.604;2024-02-16T07:57:18;5.30;99.90
52024;DHT22;38038;45.922;13.604;2024-02-16T07:59:43;5.30;99.90
52024;DHT22;38038;45.922;13.604;2024-02-16T08:02:10;5.20;99.90
52024;DHT22;38038;45.922;13.604;2024-02-16T08:04:41;5.30;99.90
52024;DHT22;38038;45.922;13.604;2024-02-16T08:07:07;5.30;99.90
52024;DHT22;38038;45.922;13.604;2024-02-16T08:09:33;5.30;99.90
52024;DHT22;38038;45.922;13.604;2024-02-16T08:11:59;5.40;99.90
52024;DHT22;38038;45.922;13.604;2024-02-16T08:14:25;5.50;99.90
52024;DHT22;38038;45.922;13.604;2024-02-16T08:16:51;5.70;99.90
52024;DHT22;38038;45.922;13.604;2024-02-16T08:19:16;5.90;99.90
52024;DHT22;38038;45.922;13.604;2024-02-16T08:21:42;5.90;99.90
52024;DHT22;38038;45.922;13.604;2024-02-16T08:24:08;6.10;99.90
52024;DHT22;38038;45.922;13.604;2024-02-16T08:26:33;6.20;99.90
52024;DHT22;38038;45.922;13.604;2024-02-16T08:28:59;6.20;99.90
52024;DHT22;38038;45.922;13.604;2024-02-16T08:31:25;6.30;99.90
52024;DHT22;38038;45.922;13.604;2024-02-16T08:33:50;6.40;99.90
52024;DHT22;38038;45.922;13.604;2024-02-16T08:36:16;6.50;99.90
52024;DHT22;38038;45.922;13.604;2024-02-16T08:38:42;6.60;99.90
52024;DHT22;38038;45.922;13.604;2024-02-16T08:41:08;6.80;99.90
52024;DHT22;38038;45.922;13.604;2024-02-16T08:43:34;6.80;99.90
52024;DHT22;38038;45.922;13.604;2024-02-16T08:45:59;6.90;99.90
52024;DHT22;38038;45.922;13.604;2024-02-16T08:48:25;7.10;99.90
52024;DHT22;38038;45.922;13.604;2024-02-16T08:50:51;7.20;99.90
52024;DHT22;38038;45.922;13.604;2024-02-16T08:53:17;7.30;99.90
52024;DHT22;38038;45.922;13.604;2024-02-16T08:55:42;7.30;99.90
52024;DHT22;38038;45.922;13.604;2024-02-16T08:58:09;7.40;99.90
52024;DHT22;38038;45.922;13.604;2024-02-16T09:00:34;7.50;99.90
52024;DHT22;38038;45.922;13.604;2024-02-16T09:03:00;7.60;99.90
52024;DHT22;38038;45.922;13.604;2024-02-16T09:05:29;7.70;99.90
52024;DHT22;38038;45.922;13.604;2024-02-16T09:07:54;7.80;99.90
52024;DHT22;38038;45.922;13.604;2024-02-16T09:10:20;8.00;99.90
52024;DHT22;38038;45.922;13.604;2024-02-16T09:12:46;8.10;99.90
52024;DHT22;38038;45.922;13.604;2024-02-16T09:15:12;8.20;99.90
52024;DHT22;38038;45.922;13.604;2024-02-16T09:17:38;8.30;99.90
52024;DHT22;38038;45.922;13.604;2024-02-16T09:20:05;8.40;99.90
52024;DHT22;38038;45.922;13.604;2024-02-16T09:22:33;8.30;99.90
52024;DHT22;38038;45.922;13.604;2024-02-16T09:24:59;8.40;99.90
52024;DHT22;38038;45.922;13.604;2024-02-16T09:27:25;8.50;99.90
52024;DHT22;38038;45.922;13.604;2024-02-16T09:29:51;8.60;99.90
52024;DHT22;38038;45.922;13.604;2024-02-16T09:32:18;8.70;99.90
52024;DHT22;38038;45.922;13.604;2024-02-16T09:34:43;8.80;99.90
52024;DHT22;38038;45.922;13.604;2024-02-16T09:37:09;8.90;99.90
52024;DHT22;38038;45.922;13.604;2024-02-16T09:39:35;8.80;99.90
52024;DHT22;38038;45.922;13.604;2024-02-16T09:42:00;8.90;99.90
52024;DHT22;38038;45.922;13.604;2024-02-16T09:44:26;9.00;99.90
52024;DHT22;38038;45.922;13.604;2024-02-16T09:46:54;9.10;99.90
52024;DHT22;38038;45.922;13.604;2024-02-16T09:49:20;9.20;99.90
52024;DHT22;38038;45.922;13.604;2024-02-16T09:51:46;9.30;99.90
52024;DHT22;38038;45.922;13.604;2024-02-16T09:54:12;9.30;99.90
52024;DHT22;38038;45.922;13.604;2024-02-16T09:56:38;9.50;99.90
52024;DHT22;38038;45.922;13.604;2024-02-16T09:59:04;9.50;99.90
52024;DHT22;38038;45.922;13.604;2024-02-16T10:01:29;9.60;99.90
52024;DHT22;38038;45.922;13.604;2024-02-16T10:04:06;9.60;99.90
52024;DHT22;38038;45.922;13.604;2024-02-16T10:06:48;9.70;99.90
52024;DHT22;38038;45.922;13.604;2024-02-16T10:09:24;9.80;99.90
52024;DHT22;38038;45.922;13.604;2024-02-16T10:11:50;9.90;99.90
52024;DHT22;38038;45.922;13.604;2024-02-16T10:14:16;9.90;99.90
52024;DHT22;38038;45.922;13.604;2024-02-16T10:16:45;10.10;99.90
52024;DHT22;38038;45.922;13.604;2024-02-16T10:19:11;10.10;99.90
52024;DHT22;38038;45.922;13.604;2024-02-16T10:21:37;10.20;99.90
52024;DHT22;38038;45.922;13.604;2024-02-16T10:24:11;10.20;99.90
52024;DHT22;38038;45.922;13.604;2024-02-16T10:26:38;10.30;99.90
52024;DHT22;38038;45.922;13.604;2024-02-16T10:29:08;10.30;99.90
52024;DHT22;38038;45.922;13.604;2024-02-16T10:31:34;10.40;99.90
52024;DHT22;38038;45.922;13.604;2024-02-16T10:34:04;10.60;99.90
52024;DHT22;38038;45.922;13.604;2024-02-16T10:36:38;10.60;99.90
52024;DHT22;38038;45.922;13.604;2024-02-16T10:39:05;10.70;99.90
52024;DHT22;38038;45.922;13.604;2024-02-16T10:41:41;10.80;99.90
52024;DHT22;38038;45.922;13.604;2024-02-16T10:44:07;10.80;99.90
52024;DHT22;38038;45.922;13.604;2024-02-16T10:46:34;10.80;99.90
52024;DHT22;38038;45.922;13.604;2024-02-16T10:49:00;10.70;99.90
52024;DHT22;38038;45.922;13.604;2024-02-16T10:51:47;10.80;99.90
52024;DHT22;38038;45.922;13.604;2024-02-16T10:54:17;10.90;99.90
52024;DHT22;38038;45.922;13.604;2024-02-16T10:56:43;10.90;99.90
52024;DHT22;38038;45.922;13.604;2024-02-16T10:59:10;11.00;99.90
52024;DHT22;38038;45.922;13.604;2024-02-16T11:01:41;11.10;99.90
52024;DHT22;38038;45.922;13.604;2024-02-16T11:04:08;11.20;99.90
52024;DHT22;38038;45.922;13.604;2024-02-16T11:06:47;11.20;99.90
52024;DHT22;38038;45.922;13.604;2024-02-16T11:09:29;11.20;99.90
52024;DHT22;38038;45.922;13.604;2024-02-16T11:11:59;11.30;99.90
52024;DHT22;38038;45.922;13.604;2024-02-16T11:14:38;11.40;99.90
52024;DHT22;38038;45.922;13.604;2024-02-16T11:17:20;11.50;99.90
52024;DHT22;38038;45.922;13.604;2024-02-16T11:19:47;11.60;99.90
52024;DHT22;38038;45.922;13.604;2024-02-16T11:22:19;11.60;99.90
52024;DHT22;38038;45.922;13.604;2024-02-16T11:24:47;11.70;99.90
52024;DHT22;38038;45.922;13.604;2024-02-16T11:27:13;11.80;99.90
52024;DHT22;38038;45.922;13.604;2024-02-16T11:29:41;11.80;99.90
52024;DHT22;38038;45.922;13.604;2024-02-16T11:32:07;11.80;99.90
52024;DHT22;38038;45.922;13.604;2024-02-16T11:34:34;11.90;99.90
52024;DHT22;38038;45.922;13.604;2024-02-16T11:37:01;11.90;99.90
52024;DHT22;38038;45.922;13.604;2024-02-16T11:39:28;12.00;99.90
52024;DHT22;38038;45.922;13.604;2024-02-16T11:42:06;12.00;99.90
52024;DHT22;38038;45.922;13.604;2024-02-16T11:44:33;12.10;99.90
52024;DHT22;38038;45.922;13.604;2024-02-16T11:47:00;12.20;99.90
52024;DHT22;38038;45.922;13.604;2024-02-16T11:49:27;12.20;99.90
52024;DHT22;38038;45.922;13.604;2024-02-16T11:51:53;12.20;99.90
52024;DHT22;38038;45.922;13.604;2024-02-16T11:54:19;12.20;99.90
52024;DHT22;38038;45.922;13.604;2024-02-16T11:56:48;12.20;99.90
52024;DHT22;38038;45.922;13.604;2024-02-16T11:59:20;12.20;99.90
52024;DHT22;38038;45.922;13.604;2024-02-16T12:04:37;12.30;99.90
52024;DHT22;38038;45.922;13.604;2024-02-16T12:07:03;12.40;99.90
52024;DHT22;38038;45.922;13.604;2024-02-16T12:09:29;12.40;99.90
52024;DHT22;38038;45.922;13.604;2024-02-16T12:11:57;12.40;99.90
52024;DHT22;38038;45.922;13.604;2024-02-16T12:14:24;12.40;99.90
52024;DHT22;38038;45.922;13.604;2024-02-16T12:16:51;12.50;99.90
52024;DHT22;38038;45.922;13.604;2024-02-16T12:19:20;12.60;99.90
52024;DHT22;38038;45.922;13.604;2024-02-16T12:21:56;12.60;99.90
52024;DHT22;38038;45.922;13.604;2024-02-16T12:24:23;12.60;99.90
52024;DHT22;38038;45.922;13.604;2024-02-16T12:26:49;12.70;99.90
52024;DHT22;38038;45.922;13.604;2024-02-16T12:29:15;12.80;99.90
52024;DHT22;38038;45.922;13.604;2024-02-16T12:31:43;12.80;99.90
52024;DHT22;38038;45.922;13.604;2024-02-16T12:34:09;12.80;99.90
52024;DHT22;38038;45.922;13.604;2024-02-16T12:36:36;12.80;99.90
52024;DHT22;38038;45.922;13.604;2024-02-16T12:39:04;12.80;99.90
52024;DHT22;38038;45.922;13.604;2024-02-16T12:41:30;12.80;99.90
52024;DHT22;38038;45.922;13.604;2024-02-16T12:43:56;12.80;99.90
52024;DHT22;38038;45.922;13.604;2024-02-16T12:46:22;12.90;99.90
52024;DHT22;38038;45.922;13.604;2024-02-16T12:48:47;12.90;99.90
52024;DHT22;38038;45.922;13.604;2024-02-16T12:51:13;12.90;99.90
52024;DHT22;38038;45.922;13.604;2024-02-16T12:53:39;12.90;99.90
52024;DHT22;38038;45.922;13.604;2024-02-16T12:56:09;13.00;99.90
52024;DHT22;38038;45.922;13.604;2024-02-16T12:58:38;13.00;99.90
52024;DHT22;38038;45.922;13.604;2024-02-16T13:01:05;13.00;99.90
52024;DHT22;38038;45.922;13.604;2024-02-16T13:03:34;13.00;99.90
52024;DHT22;38038;45.922;13.604;2024-02-16T13:06:00;13.00;99.90
52024;DHT22;38038;45.922;13.604;2024-02-16T13:08:26;13.00;99.90
52024;DHT22;38038;45.922;13.604;2024-02-16T13:10:52;13.00;99.90
52024;DHT22;38038;45.922;13.604;2024-02-16T13:13:18;13.10;99.90
52024;DHT22;38038;45.922;13.604;2024-02-16T13:15:43;13.10;99.90
52024;DHT22;38038;45.922;13.604;2024-02-16T13:18:09;13.10;99.90
52024;DHT22;38038;45.922;13.604;2024-02-16T13:20:35;13.10;99.90
52024;DHT22;38038;45.922;13.604;2024-02-16T13:23:01;13.10;99.90
52024;DHT22;38038;45.922;13.604;2024-02-16T13:25:27;13.10;99.90
52024;DHT22;38038;45.922;13.604;2024-02-16T13:27:53;13.10;99.90
52024;DHT22;38038;45.922;13.604;2024-02-16T13:30:18;13.20;99.90
52024;DHT22;38038;45.922;13.604;2024-02-16T13:32:44;13.20;99.90
52024;DHT22;38038;45.922;13.604;2024-02-16T13:35:10;13.20;99.90
52024;DHT22;38038;45.922;13.604;2024-02-16T13:37:35;13.30;99.90
52024;DHT22;38038;45.922;13.604;2024-02-16T13:40:02;13.30;99.90
52024;DHT22;38038;45.922;13.604;2024-02-16T13:42:36;13.30;99.90
52024;DHT22;38038;45.922;13.604;2024-02-16T13:45:02;13.30;99.90
52024;DHT22;38038;45.922;13.604;2024-02-16T13:47:28;13.30;99.90
52024;DHT22;38038;45.922;13.604;2024-02-16T13:49:54;13.30;99.90
52024;DHT22;38038;45.922;13.604;2024-02-16T13:52:22;13.20;99.90
52024;DHT22;38038;45.922;13.604;2024-02-16T13:54:48;13.20;99.90
52024;DHT22;38038;45.922;13.604;2024-02-16T13:57:13;13.20;99.90
52024;DHT22;38038;45.922;13.604;2024-02-16T13:59:39;13.30;99.90
52024;DHT22;38038;45.922;13.604;2024-02-16T14:02:07;13.20;99.90
52024;DHT22;38038;45.922;13.604;2024-02-16T14:04:32;13.20;99.90
52024;DHT22;38038;45.922;13.604;2024-02-16T14:06:58;13.20;99.90
52024;DHT22;38038;45.922;13.604;2024-02-16T14:09:24;13.20;99.90
52024;DHT22;38038;45.922;13.604;2024-02-16T14:11:51;13.20;99.90
52024;DHT22;38038;45.922;13.604;2024-02-16T14:14:19;13.30;99.90
52024;DHT22;38038;45.922;13.604;2024-02-16T14:16:45;13.30;99.90
52024;DHT22;38038;45.922;13.604;2024-02-16T14:19:10;13.30;99.90
52024;DHT22;38038;45.922;13.604;2024-02-16T14:21:36;13.20;99.90
52024;DHT22;38038;45.922;13.604;2024-02-16T14:24:02;13.10;99.90
52024;DHT22;38038;45.922;13.604;2024-02-16T14:26:28;13.20;99.90
52024;DHT22;38038;45.922;13.604;2024-02-16T14:28:54;13.20;99.90
52024;DHT22;38038;45.922;13.604;2024-02-16T14:31:21;13.20;99.90
52024;DHT22;38038;45.922;13.604;2024-02-16T14:33:50;13.20;99.90
52024;DHT22;38038;45.922;13.604;2024-02-16T14:36:16;13.20;99.90
52024;DHT22;38038;45.922;13.604;2024-02-16T14:38:41;13.20;99.90
52024;DHT22;38038;45.922;13.604;2024-02-16T14:41:07;13.30;99.90
52024;DHT22;38038;45.922;13.604;2024-02-16T14:43:33;13.20;99.90
52024;DHT22;38038;45.922;13.604;2024-02-16T14:45:59;13.20;99.90
52024;DHT22;38038;45.922;13.604;2024-02-16T14:48:25;13.10;99.90
52024;DHT22;38038;45.922;13.604;2024-02-16T14:50:51;13.20;99.90
52024;DHT22;38038;45.922;13.604;2024-02-16T14:53:22;13.20;99.90
52024;DHT22;38038;45.922;13.604;2024-02-16T14:55:50;13.20;99.90
52024;DHT22;38038;45.922;13.604;2024-02-16T14:58:16;13.10;99.90
52024;DHT22;38038;45.922;13.604;2024-02-16T15:00:42;13.00;99.90
52024;DHT22;38038;45.922;13.604;2024-02-16T15:03:09;13.10;99.90
52024;DHT22;38038;45.922;13.604;2024-02-16T15:05:35;13.00;99.90
52024;DHT22;38038;45.922;13.604;2024-02-16T15:08:01;13.00;99.90
52024;DHT22;38038;45.922;13.604;2024-02-16T15:10:28;13.00;99.90
52024;DHT22;38038;45.922;13.604;2024-02-16T15:12:54;13.00;99.90
52024;DHT22;38038;45.922;13.604;2024-02-16T15:15:19;13.00;99.90
52024;DHT22;38038;45.922;13.604;2024-02-16T15:17:45;13.00;99.90
52024;DHT22;38038;45.922;13.604;2024-02-16T15:20:12;13.00;99.90
52024;DHT22;38038;45.922;13.604;2024-02-16T15:22:38;12.90;99.90
52024;DHT22;38038;45.922;13.604;2024-02-16T15:25:04;12.90;99.90